Time,TemperatureF,DewpointF,PressureIn,WindDirection,WindDirectionDegrees,WindSpeedMPH,WindSpeedGustMPH,Humidity,HourlyPrecipIn,Conditions,Clouds,dailyrainin,SoftwareType,DateUTC
2013-08-31 00:10:00,75.6,75.0,29.70,SSW,202,0.0,-999.0,98,-99.99,,,0.00,Acu-Link.com,2013-08-31 04:10:00,
2013-08-31 00:25:00,75.4,74.8,29.68,South,180,0.0,-999.0,98,-99.99,,,0.00,Acu-Link.com,2013-08-31 04:25:00,
2013-08-31 00:40:00,75.4,74.8,29.69,West,270,1.7,-999.0,98,-99.99,,,0.00,Acu-Link.com,2013-08-31 04:40:00,
2013-08-31 00:56:00,75.6,75.0,29.69,SSE,157,0.0,-999.0,98,-99.99,,,0.00,Acu-Link.com,2013-08-31 04:56:00,
2013-08-31 01:11:00,75.6,75.0,29.69,WSW,247,1.1,-999.0,98,-99.99,,,0.00,Acu-Link.com,2013-08-31 05:11:00,
2013-08-31 01:26:00,75.2,74.6,29.70,SW,225,0.0,-999.0,98,-99.99,,,0.00,Acu-Link.com,2013-08-31 05:26:00,
2013-08-31 01:42:00,75.0,74.4,29.69,NE,45,0.0,-999.0,98,-99.99,,,0.00,Acu-Link.com,2013-08-31 05:42:00,
2013-08-31 01:57:00,75.0,74.4,29.69,NE,45,0.0,-999.0,98,-99.99,,,0.00,Acu-Link.com,2013-08-31 05:57:00,
2013-08-31 02:12:00,74.8,74.2,29.68,South,180,1.1,-999.0,98,-99.99,,,0.00,Acu-Link.com,2013-08-31 06:12:00,
2013-08-31 02:28:00,74.8,74.2,29.69,NNE,22,0.0,-999.0,98,-99.99,,,0.00,Acu-Link.com,2013-08-31 06:28:00,
2013-08-31 02:43:00,74.8,74.2,29.69,East,90,0.0,-999.0,98,-99.99,,,0.00,Acu-Link.com,2013-08-31 06:43:00,
2013-08-31 02:58:00,74.7,74.1,29.68,SSW,202,1.7,-999.0,98,-99.99,,,0.00,Acu-Link.com,2013-08-31 06:58:00,
2013-08-31 03:13:00,74.5,73.9,29.70,SSW,202,0.0,-999.0,98,-99.99,,,0.00,Acu-Link.com,2013-08-31 07:13:00,
2013-08-31 03:29:00,74.1,73.5,29.69,NNE,22,0.0,-999.0,98,-99.99,,,0.00,Acu-Link.com,2013-08-31 07:29:00,
2013-08-31 03:44:00,73.8,73.2,29.68,NW,315,0.0,-999.0,98,-99.99,,,0.00,Acu-Link.com,2013-08-31 07:44:00,
2013-08-31 03:59:00,73.6,73.0,29.68,South,180,0.0,-999.0,98,-99.99,,,0.00,Acu-Link.com,2013-08-31 07:59:00,
2013-08-31 04:15:00,73.2,72.6,29.68,NNE,22,0.0,-999.0,98,-99.99,,,0.00,Acu-Link.com,2013-08-31 08:15:00,
2013-08-31 04:30:00,73.2,72.6,29.68,NNE,22,0.0,-999.0,98,-99.99,,,0.00,Acu-Link.com,2013-08-31 08:30:00,
2013-08-31 04:46:00,73.0,72.4,29.69,NNW,337,0.0,-999.0,98,-99.99,,,0.00,Acu-Link.com,2013-08-31 08:46:00,
2013-08-31 05:01:00,72.9,72.3,29.69,South,180,0.0,-999.0,98,-99.99,,,0.00,Acu-Link.com,2013-08-31 09:01:00,
2013-08-31 05:16:00,72.5,71.9,29.69,North,0,0.0,-999.0,98,-99.99,,,0.00,Acu-Link.com,2013-08-31 09:16:00,
2013-08-31 05:31:00,72.7,72.1,29.71,ESE,112,0.0,-999.0,98,-99.99,,,0.00,Acu-Link.com,2013-08-31 09:31:00,
2013-08-31 05:46:00,73.0,72.4,29.69,SSE,157,1.7,-999.0,98,-99.99,,,0.00,Acu-Link.com,2013-08-31 09:46:00,
2013-08-31 06:02:00,73.0,72.4,29.70,SSE,157,0.0,-999.0,98,-99.99,,,0.00,Acu-Link.com,2013-08-31 10:02:00,
2013-08-31 06:17:00,73.0,72.4,29.70,SSW,202,1.1,-999.0,98,-99.99,,,0.00,Acu-Link.com,2013-08-31 10:17:00,
2013-08-31 06:32:00,73.0,72.4,29.70,South,180,1.1,-999.0,98,-99.99,,,0.00,Acu-Link.com,2013-08-31 10:32:00,
2013-08-31 06:48:00,73.2,72.6,29.70,South,180,1.1,-999.0,98,-99.99,,,0.00,Acu-Link.com,2013-08-31 10:48:00,
2013-08-31 07:03:00,73.0,72.4,29.70,SSW,202,1.7,-999.0,98,-99.99,,,0.00,Acu-Link.com,2013-08-31 11:03:00,
2013-08-31 07:18:00,73.2,72.6,29.70,SW,225,0.0,-999.0,98,-99.99,,,0.00,Acu-Link.com,2013-08-31 11:18:00,
2013-08-31 07:34:00,73.2,72.6,29.71,SSW,202,0.0,-999.0,98,-99.99,,,0.00,Acu-Link.com,2013-08-31 11:34:00,
2013-08-31 07:49:00,73.8,73.2,29.71,SSW,202,1.1,-999.0,98,-99.99,,,0.00,Acu-Link.com,2013-08-31 11:49:00,
2013-08-31 08:04:00,74.5,73.9,29.71,SSE,157,3.2,-999.0,98,-99.99,,,0.00,Acu-Link.com,2013-08-31 12:04:00,
2013-08-31 08:19:00,74.8,74.2,29.71,NE,45,0.0,-999.0,98,-99.99,,,0.00,Acu-Link.com,2013-08-31 12:19:00,
2013-08-31 08:34:00,75.7,75.1,29.72,ESE,112,3.2,-999.0,98,-99.99,,,0.00,Acu-Link.com,2013-08-31 12:34:00,
2013-08-31 08:50:00,76.8,76.2,29.72,SSW,202,0.0,-999.0,98,-99.99,,,0.00,Acu-Link.com,2013-08-31 12:50:00,
2013-08-31 09:05:00,77.2,76.6,29.73,South,180,2.7,-999.0,98,-99.99,,,0.00,Acu-Link.com,2013-08-31 13:05:00,
2013-08-31 09:20:00,77.4,76.8,29.74,SE,135,4.7,-999.0,98,-99.99,,,0.00,Acu-Link.com,2013-08-31 13:20:00,
2013-08-31 09:36:00,78.3,77.7,29.72,South,180,3.7,-999.0,98,-99.99,,,0.00,Acu-Link.com,2013-08-31 13:36:00,
2013-08-31 09:51:00,79.2,78.6,29.73,NNE,22,1.7,-999.0,98,-99.99,,,0.00,Acu-Link.com,2013-08-31 13:51:00,
2013-08-31 10:07:00,79.7,79.1,29.74,West,270,0.0,-999.0,98,-99.99,,,0.00,Acu-Link.com,2013-08-31 14:07:00,
2013-08-31 10:22:00,80.4,79.8,29.72,SSE,157,1.1,-999.0,98,-99.99,,,0.00,Acu-Link.com,2013-08-31 14:22:00,
2013-08-31 10:37:00,81.0,80.4,29.72,SW,225,2.7,-999.0,98,-99.99,,,0.00,Acu-Link.com,2013-08-31 14:37:00,
2013-08-31 10:52:00,80.8,80.2,29.71,WSW,247,2.7,-999.0,98,-99.99,,,0.00,Acu-Link.com,2013-08-31 14:52:00,
2013-08-31 11:07:00,82.4,81.8,29.72,ESE,112,2.2,-999.0,98,-99.99,,,0.00,Acu-Link.com,2013-08-31 15:07:00,
2013-08-31 11:22:00,83.7,83.1,29.73,SSE,157,4.2,-999.0,98,-99.99,,,0.00,Acu-Link.com,2013-08-31 15:22:00,
2013-08-31 11:38:00,84.2,83.6,29.72,SSE,157,3.7,-999.0,98,-99.99,,,0.00,Acu-Link.com,2013-08-31 15:38:00,
2013-08-31 11:53:00,83.7,83.1,29.73,SSE,157,5.3,-999.0,98,-99.99,,,0.00,Acu-Link.com,2013-08-31 15:53:00,
2013-08-31 12:08:00,84.7,84.1,29.72,NNE,22,2.2,-999.0,98,-99.99,,,0.00,Acu-Link.com,2013-08-31 16:08:00,
2013-08-31 12:23:00,86.0,85.4,29.71,West,270,4.2,-999.0,98,-99.99,,,0.00,Acu-Link.com,2013-08-31 16:23:00,
2013-08-31 12:39:00,87.4,86.8,29.72,SSE,157,2.7,-999.0,98,-99.99,,,0.00,Acu-Link.com,2013-08-31 16:39:00,
2013-08-31 12:54:00,87.8,87.2,29.69,WNW,292,5.3,-999.0,98,-99.99,,,0.00,Acu-Link.com,2013-08-31 16:54:00,
2013-08-31 13:09:00,89.4,88.8,29.69,South,180,1.7,-999.0,98,-99.99,,,0.00,Acu-Link.com,2013-08-31 17:09:00,
2013-08-31 13:25:00,91.4,90.8,29.68,West,270,2.7,-999.0,98,-99.99,,,0.00,Acu-Link.com,2013-08-31 17:25:00,
2013-08-31 13:40:00,91.9,89.2,29.68,South,180,2.7,-999.0,92,-99.99,,,0.00,Acu-Link.com,2013-08-31 17:40:00,
2013-08-31 13:55:00,94.5,86.9,29.67,SSE,157,4.2,-999.0,79,-99.99,,,0.00,Acu-Link.com,2013-08-31 17:55:00,
2013-08-31 14:10:00,93.2,84.5,29.69,ESE,112,6.3,-999.0,76,-99.99,,,0.00,Acu-Link.com,2013-08-31 18:10:00,
2013-08-31 14:25:00,93.0,84.3,29.68,ESE,112,2.7,-999.0,76,-99.99,,,0.00,Acu-Link.com,2013-08-31 18:25:00,
2013-08-31 14:40:00,94.5,83.2,29.68,West,270,2.2,-999.0,70,-99.99,,,0.00,Acu-Link.com,2013-08-31 18:40:00,
2013-08-31 14:56:00,97.2,82.9,29.65,West,270,1.7,-999.0,64,-99.99,,,0.00,Acu-Link.com,2013-08-31 18:56:00,
2013-08-31 15:11:00,98.2,82.4,29.64,South,180,3.2,-999.0,61,-99.99,,,0.00,Acu-Link.com,2013-08-31 19:11:00,
2013-08-31 15:26:00,97.5,81.2,29.62,NNE,22,1.1,-999.0,60,-99.99,,,0.00,Acu-Link.com,2013-08-31 19:26:00,
2013-08-31 15:42:00,96.3,80.1,29.62,SSW,202,3.7,-999.0,60,-99.99,,,0.00,Acu-Link.com,2013-08-31 19:42:00,
2013-08-31 15:57:00,98.4,80.5,29.62,South,180,4.7,-999.0,57,-99.99,,,0.00,Acu-Link.com,2013-08-31 19:57:00,
2013-08-31 16:12:00,95.2,81.5,29.61,WSW,247,1.7,-999.0,65,-99.99,,,0.00,Acu-Link.com,2013-08-31 20:12:00,
2013-08-31 16:28:00,95.2,81.1,29.60,South,180,2.7,-999.0,64,-99.99,,,0.00,Acu-Link.com,2013-08-31 20:28:00,
2013-08-31 16:43:00,91.6,79.5,29.62,SW,225,1.7,-999.0,68,-99.99,,,0.00,Acu-Link.com,2013-08-31 20:43:00,
2013-08-31 16:58:00,91.9,82.4,29.60,ESE,112,2.2,-999.0,74,-99.99,,,0.00,Acu-Link.com,2013-08-31 20:58:00,
2013-08-31 17:13:00,94.5,79.9,29.60,North,0,2.2,-999.0,63,-99.99,,,0.00,Acu-Link.com,2013-08-31 21:13:00,
2013-08-31 17:29:00,93.0,79.9,29.61,SSE,157,1.7,-999.0,66,-99.99,,,0.00,Acu-Link.com,2013-08-31 21:29:00,
2013-08-31 17:44:00,93.4,79.8,29.60,WSW,247,4.7,-999.0,65,-99.99,,,0.00,Acu-Link.com,2013-08-31 21:44:00,
2013-08-31 17:59:00,92.3,79.3,29.62,SSW,202,3.7,-999.0,66,-99.99,,,0.00,Acu-Link.com,2013-08-31 21:59:00,
2013-08-31 18:15:00,90.9,80.6,29.62,ESE,112,1.7,-999.0,72,-99.99,,,0.00,Acu-Link.com,2013-08-31 22:15:00,
2013-08-31 18:30:00,90.3,79.6,29.60,South,180,3.2,-999.0,71,-99.99,,,0.00,Acu-Link.com,2013-08-31 22:30:00,
2013-08-31 18:45:00,88.7,82.5,29.60,SSE,157,1.7,-999.0,82,-99.99,,,0.00,Acu-Link.com,2013-08-31 22:45:00,
2013-08-31 19:01:00,88.0,84.3,29.61,South,180,0.0,-999.0,89,-99.99,,,0.00,Acu-Link.com,2013-08-31 23:01:00,
2013-08-31 19:16:00,87.4,86.8,29.61,SSW,202,0.0,-999.0,98,-99.99,,,0.00,Acu-Link.com,2013-08-31 23:16:00,
2013-08-31 19:31:00,86.2,85.6,29.60,SSW,202,0.0,-999.0,98,-99.99,,,0.00,Acu-Link.com,2013-08-31 23:31:00,
2013-08-31 19:47:00,84.7,84.1,29.61,SSW,202,0.0,-999.0,98,-99.99,,,0.00,Acu-Link.com,2013-08-31 23:47:00,
2013-08-31 20:02:00,83.3,82.7,29.62,North,0,0.0,-999.0,98,-99.99,,,0.00,Acu-Link.com,2013-09-01 00:02:00,
2013-08-31 20:17:00,81.5,80.9,29.64,NNE,22,0.0,-999.0,98,-99.99,,,0.00,Acu-Link.com,2013-09-01 00:17:00,
2013-08-31 20:33:00,80.4,79.8,29.63,NNE,22,0.0,-999.0,98,-99.99,,,0.00,Acu-Link.com,2013-09-01 00:33:00,
2013-08-31 20:48:00,79.2,78.6,29.66,NNE,22,0.0,-999.0,98,-99.99,,,0.00,Acu-Link.com,2013-09-01 00:48:00,
2013-08-31 21:03:00,78.6,78.0,29.64,WNW,292,0.0,-999.0,98,-99.99,,,0.00,Acu-Link.com,2013-09-01 01:03:00,
2013-08-31 21:19:00,78.1,77.5,29.65,SW,225,0.0,-999.0,98,-99.99,,,0.00,Acu-Link.com,2013-09-01 01:19:00,
2013-08-31 21:34:00,77.9,77.3,29.65,SSW,202,0.0,-999.0,98,-99.99,,,0.00,Acu-Link.com,2013-09-01 01:34:00,
2013-08-31 21:49:00,75.4,74.8,29.67,West,270,8.9,-999.0,98,-99.99,,,0.00,Acu-Link.com,2013-09-01 01:49:00,
2013-08-31 22:04:00,71.8,71.2,29.74,NNW,337,5.3,-999.0,98,-99.99,,,0.16,Acu-Link.com,2013-09-01 02:04:00,
2013-08-31 22:19:00,70.0,69.4,29.69,NNW,337,1.7,-999.0,98,-99.99,,,0.92,Acu-Link.com,2013-09-01 02:19:00,
2013-08-31 22:35:00,70.0,69.4,29.69,East,90,1.7,-999.0,98,-99.99,,,1.41,Acu-Link.com,2013-09-01 02:35:00,
2013-08-31 22:50:00,70.3,69.7,29.69,SSW,202,1.7,-999.0,98,-99.99,,,1.47,Acu-Link.com,2013-09-01 02:50:00,
2013-08-31 23:05:00,70.3,69.7,29.69,South,180,1.7,-999.0,98,-99.99,,,1.47,Acu-Link.com,2013-09-01 03:05:00,
2013-08-31 23:20:00,70.3,69.7,29.68,South,180,1.7,-999.0,98,-99.99,,,1.47,Acu-Link.com,2013-09-01 03:20:00,
2013-08-31 23:36:00,70.2,69.6,29.67,ESE,112,0.0,-999.0,98,-99.99,,,1.47,Acu-Link.com,2013-09-01 03:36:00,
2013-08-31 23:51:00,70.0,69.4,29.66,East,90,0.0,-999.0,98,-99.99,,,1.47,Acu-Link.com,2013-09-01 03:51:00,